Vallejo, California
Current Conditions -  °F | °C
As of 1:54 PM on Monday 24 Nov 2014 (Local Time) from KAPC Reporting Station
Clear Clear  
Wind Chill: 63°   Ceiling: Unl
Heat Index: 63°   Visibility: 10mi
Dew Point: 42°   Wind: 0mph
Humidity: 46%   Direction: NA
Pressure: 30.35"   Gusts: NA
Location:  38.1°N, 122.25°W
Report Text: KAPC 242154Z AUTO 00000KT 10SM CLR 17/06 A3035 RMK AO2 SLP269 T01720056 PWINO PNO $
Loading
Personal Weather Stations






























Interactive Weather Map New forecast layout! Learn more

10-Day Weather Forecast

Advertisements
Track Severe Weather on mobile